CheckWX is a tool to help pilots better visualize weather data.  It is not intended as a substitute for an official pre-flight weather briefing.

00:43:29 UTC

KETC METAR
Tarboro-Edgecombe Airport
Tarboro, North Carolina, USA
Current

28 mins ago

KETC 100015Z AUTO 04005KT 7SM SCT030 SCT035 27/23 A2984 RMK AO2 T02670231
Observed
Jul-10 @ 00:15 UTC
Wind
  • 040° at 5 KTS
Visibility
7 SM
Flight Rules
VFR
Cloud Levels
  • Scattered at 3,000' AGL
  • Scattered at 3,500' AGL
Temperature
27°C / 81°F
Dewpoint
23°C / 73°F
Humidity
79%
Altimeter
29.84" Hg
Pressure
1010.52 hPa
Previous

1 hour ago

KETC 092335Z AUTO 05006KT 7SM SCT060 28/23 A2984 RMK AO2 T02760228
Observed
Jul-9 @ 23:35 UTC
Wind
  • 050° at 6 KTS
Visibility
7 SM
Flight Rules
VFR
Cloud Levels
  • Scattered at 6,000' AGL
Temperature
28°C / 82°F
Dewpoint
23°C / 73°F
Humidity
74%
Altimeter
29.84" Hg
Pressure
1010.52 hPa
Previous

1 hour ago

KETC 092315Z AUTO 05006KT 7SM SCT041 BKN060 28/22 A2983 RMK AO2 T02770224
Observed
Jul-9 @ 23:15 UTC
Wind
  • 050° at 6 KTS
Visibility
7 SM
Flight Rules
VFR
Cloud Levels
  • Scattered at 4,100' AGL
  • Broken at 6,000' AGL
Temperature
28°C / 82°F
Dewpoint
22°C / 72°F
Humidity
70%
Altimeter
29.83" Hg
Pressure
1010.12 hPa